createdAt,value
2017-05-11T00:00:05.363Z,1006.8
2017-05-11T00:01:07.771Z,1006.8
2017-05-11T00:02:10.750Z,1006.8
2017-05-11T00:03:13.095Z,1006.8
2017-05-11T00:04:16.196Z,1006.8
2017-05-11T00:05:18.537Z,1006.8
2017-05-11T00:06:20.992Z,1006.8
2017-05-11T00:07:23.833Z,1006.8
2017-05-11T00:08:26.681Z,1006.8
2017-05-11T00:09:29.272Z,1006.8
2017-05-11T00:10:31.978Z,1006.8
2017-05-11T00:11:34.365Z,1006.8
2017-05-11T00:12:37.306Z,1006.8
2017-05-11T00:13:39.710Z,1006.8
2017-05-11T00:14:42.679Z,1006.8
2017-05-11T00:15:45.021Z,1006.7
2017-05-11T00:16:47.864Z,1006.7
2017-05-11T00:17:50.578Z,1006.8
2017-05-11T00:18:52.915Z,1006.7
2017-05-11T00:19:56.007Z,1006.7
2017-05-11T00:20:58.345Z,1006.8
2017-05-11T00:22:01.182Z,1006.8
2017-05-11T00:23:03.569Z,1006.8
2017-05-11T00:24:06.408Z,1006.8
2017-05-11T00:25:09.045Z,1006.7
2017-05-11T00:26:11.754Z,1006.7
2017-05-11T00:27:14.090Z,1006.7
2017-05-11T00:28:16.658Z,1006.7
2017-05-11T00:29:19.499Z,1006.7
2017-05-11T00:30:22.602Z,1006.7
2017-05-11T00:31:24.943Z,1006.8
2017-05-11T00:32:27.286Z,1006.7
2017-05-11T00:33:30.135Z,1006.7
2017-05-11T00:34:32.978Z,1006.7
2017-05-11T00:35:35.627Z,1006.7
2017-05-11T00:36:37.977Z,1006.7
2017-05-11T00:37:40.834Z,1006.7
2017-05-11T00:38:43.553Z,1006.7
2017-05-11T00:39:45.892Z,1006.6
2017-05-11T00:40:48.986Z,1006.6
2017-05-11T00:41:51.328Z,1006.7
2017-05-11T00:42:54.032Z,1006.6
2017-05-11T00:43:56.372Z,1006.6
2017-05-11T00:44:59.219Z,1006.7
2017-05-11T00:46:02.369Z,1006.6
2017-05-11T00:47:04.709Z,1006.6
2017-05-11T00:48:07.110Z,1006.6
2017-05-11T00:49:09.955Z,1006.7
2017-05-11T00:50:12.295Z,1006.6
2017-05-11T00:51:15.302Z,1006.6
2017-05-11T00:52:17.651Z,1006.6
2017-05-11T00:53:20.495Z,1006.6
2017-05-11T00:54:23.067Z,1006.6
2017-05-11T00:55:25.909Z,1006.6
2017-05-11T00:56:28.503Z,1006.6
2017-05-11T00:57:30.846Z,1006.6
2017-05-11T00:58:33.686Z,1006.6
2017-05-11T00:59:36.025Z,1006.6
2017-05-11T01:00:38.867Z,1006.5
2017-05-11T01:01:41.964Z,1006.5
2017-05-11T01:02:44.172Z,1006.5
2017-05-11T01:03:47.020Z,1006.5
2017-05-11T01:04:49.360Z,1006.5
2017-05-11T01:05:52.202Z,1006.6
2017-05-11T01:06:55.164Z,1006.5
2017-05-11T01:07:57.366Z,1006.6
2017-05-11T01:09:00.216Z,1006.5
2017-05-11T01:10:02.552Z,1006.5
2017-05-11T01:11:05.397Z,1006.5
2017-05-11T01:12:07.996Z,1006.5
2017-05-11T01:13:10.379Z,1006.5
2017-05-11T01:14:13.220Z,1006.5
2017-05-11T01:15:16.120Z,1006.5
2017-05-11T01:16:18.462Z,1006.5
2017-05-11T01:17:21.641Z,1006.4
2017-05-11T01:18:23.982Z,1006.5
2017-05-11T01:19:26.322Z,1006.5
2017-05-11T01:20:29.166Z,1006.5
2017-05-11T01:21:31.930Z,1006.5
2017-05-11T01:22:34.552Z,1006.5
2017-05-11T01:23:36.902Z,1006.5
2017-05-11T01:24:39.614Z,1006.5
2017-05-11T01:25:42.455Z,1006.5
2017-05-11T01:26:44.803Z,1006.5
2017-05-11T01:27:47.893Z,1006.5
2017-05-11T01:28:50.239Z,1006.5
2017-05-11T01:29:53.076Z,1006.5
2017-05-11T01:30:55.426Z,1006.5
2017-05-11T01:31:58.326Z,1006.5
2017-05-11T01:33:00.914Z,1006.5
2017-05-11T01:34:03.294Z,1006.5
2017-05-11T01:35:06.143Z,1006.6
2017-05-11T01:36:08.480Z,1006.6
2017-05-11T01:37:11.324Z,1006.5
2017-05-11T01:38:14.466Z,1006.5
2017-05-11T01:39:16.811Z,1006.5
2017-05-11T01:40:19.152Z,1006.6
2017-05-11T01:42:24.406Z,1006.6
2017-05-11T01:43:27.498Z,1006.6
2017-05-11T01:44:29.841Z,1006.6
2017-05-11T01:45:32.186Z,1006.5
2017-05-11T01:46:34.757Z,1006.6
2017-05-11T01:47:37.663Z,1006.5
2017-05-11T01:48:40.759Z,1006.5
2017-05-11T01:49:43.101Z,1006.5
2017-05-11T01:50:45.438Z,1006.5
2017-05-11T01:51:48.327Z,1006.5
2017-05-11T01:52:50.668Z,1006.5
2017-05-11T01:53:53.766Z,1006.5
2017-05-11T01:54:56.109Z,1006.5
2017-05-11T01:55:58.451Z,1006.5
2017-05-11T01:57:01.296Z,1006.5
2017-05-11T01:58:04.137Z,1006.5
2017-05-11T01:59:06.778Z,1006.5
2017-05-11T02:00:09.117Z,1006.5
2017-05-11T02:01:11.965Z,1006.5
2017-05-11T02:02:14.302Z,1006.5
2017-05-11T02:03:17.150Z,1006.5
2017-05-11T02:04:20.292Z,1006.5
2017-05-11T02:05:22.496Z,1006.5
2017-05-11T02:06:25.205Z,1006.4
2017-05-11T02:07:27.545Z,1006.4
2017-05-11T02:08:30.390Z,1006.4
2017-05-11T02:09:32.979Z,1006.5
2017-05-11T02:10:35.318Z,1006.4
2017-05-11T02:11:38.154Z,1006.4
2017-05-11T02:12:40.998Z,1006.4
2017-05-11T02:13:43.395Z,1006.4
2017-05-11T02:14:46.359Z,1006.3
2017-05-11T02:15:48.702Z,1006.4
2017-05-11T02:16:51.103Z,1006.4
2017-05-11T02:17:53.943Z,1006.4
2017-05-11T02:18:56.650Z,1006.4
2017-05-11T02:19:59.291Z,1006.4
2017-05-11T02:21:01.629Z,1006.3
2017-05-11T02:22:04.471Z,1006.4
2017-05-11T02:23:07.314Z,1006.3
2017-05-11T02:24:09.656Z,1006.3
2017-05-11T02:25:12.621Z,1006.3
2017-05-11T02:26:15.000Z,1006.3
2017-05-11T02:27:17.348Z,1006.3
2017-05-11T02:28:20.189Z,1006.3
2017-05-11T02:29:23.029Z,1006.4
2017-05-11T02:30:25.626Z,1006.3
2017-05-11T02:32:30.873Z,1006.3
2017-05-11T02:33:33.211Z,1006.4
2017-05-11T02:35:38.763Z,1006.3
2017-05-11T02:36:41.108Z,1006.3
2017-05-11T02:37:43.948Z,1006.4
2017-05-11T02:38:46.667Z,1006.4
2017-05-11T02:39:49.004Z,1006.3
2017-05-11T02:40:52.104Z,1006.4
2017-05-11T02:41:54.171Z,1006.4
2017-05-11T02:42:57.017Z,1006.4
2017-05-11T02:43:59.354Z,1006.4
2017-05-11T02:45:02.232Z,1006.4
2017-05-11T02:46:04.824Z,1006.3
2017-05-11T02:47:07.662Z,1006.3
2017-05-11T02:48:10.001Z,1006.4
2017-05-11T02:50:15.245Z,1006.3
2017-05-11T02:52:20.792Z,1006.3
2017-05-11T02:53:23.000Z,1006.4
2017-05-11T02:54:25.842Z,1006.3
2017-05-11T03:06:57.136Z,1006.2
2017-05-11T03:08:00.094Z,1006.3
2017-05-11T03:09:02.446Z,1006.3
2017-05-11T03:10:05.205Z,1006.2
2017-05-11T03:11:07.917Z,1006.3
2017-05-11T03:12:10.510Z,1006.2
2017-05-11T03:13:12.857Z,1006.2
2017-05-11T03:14:15.706Z,1006.3
2017-05-11T03:15:18.050Z,1006.2
2017-05-11T03:16:20.903Z,1006.3
2017-05-11T03:17:23.501Z,1006.3
2017-05-11T03:18:25.854Z,1006.3
2017-05-11T03:19:28.703Z,1006.3
2017-05-11T03:20:31.418Z,1006.2
2017-05-11T03:21:33.763Z,1006.2
2017-05-11T03:22:36.917Z,1006.2
2017-05-11T03:23:39.262Z,1006.2
2017-05-11T03:24:41.607Z,1006.2
2017-05-11T03:25:44.321Z,1006.2
2017-05-11T03:26:47.172Z,1006.2
2017-05-11T03:27:49.876Z,1006.3
2017-05-11T03:28:52.285Z,1006.2
2017-05-11T03:29:54.864Z,1006.2
2017-05-11T03:30:57.209Z,1006.2
2017-05-11T03:32:00.061Z,1006.2
2017-05-11T03:33:03.036Z,1006.3
2017-05-11T03:34:05.383Z,1006.3
2017-05-11T03:35:08.095Z,1006.3
2017-05-11T03:36:10.303Z,1006.3
2017-05-11T03:37:13.206Z,1006.3
2017-05-11T03:38:16.222Z,1006.3
2017-05-11T03:39:18.067Z,1006.3
2017-05-11T03:40:20.915Z,1006.2
2017-05-11T03:41:23.626Z,1006.2
2017-05-11T03:42:25.973Z,1006.2
2017-05-11T03:43:29.074Z,1006.2
2017-05-11T03:44:31.429Z,1006.2
2017-05-11T03:45:33.775Z,1006.2
2017-05-11T03:46:36.620Z,1006.2
2017-05-11T03:47:39.336Z,1006.3
2017-05-11T03:48:41.934Z,1006.2
2017-05-11T03:49:44.285Z,1006.3
2017-05-11T03:50:47.004Z,1006.3
2017-05-11T03:51:49.854Z,1006.3
2017-05-11T03:52:52.196Z,1006.3
2017-05-11T03:53:55.292Z,1006.3
2017-05-11T03:54:57.639Z,1006.3
2017-05-11T03:55:59.988Z,1006.4
2017-05-11T03:57:02.704Z,1006.3
2017-05-11T03:58:05.548Z,1006.4
2017-05-11T03:59:08.136Z,1006.4
2017-05-11T04:00:10.347Z,1006.4
2017-05-11T04:01:13.200Z,1006.3
2017-05-11T04:02:15.540Z,1006.3
2017-05-11T04:03:18.385Z,1006.4
2017-05-11T04:04:21.485Z,1006.4
2017-05-11T04:05:23.805Z,1006.4
2017-05-11T04:06:26.192Z,1006.4
2017-05-11T04:07:29.042Z,1006.3
2017-05-11T04:08:31.446Z,1006.3
2017-05-11T04:09:34.108Z,1006.3
2017-05-11T04:10:36.455Z,1006.3
2017-05-11T04:11:39.299Z,1006.3
2017-05-11T04:12:42.147Z,1006.3
2017-05-11T04:13:44.396Z,1006.3
2017-05-11T04:14:47.547Z,1006.3
2017-05-11T04:15:49.895Z,1006.3
2017-05-11T04:16:52.240Z,1006.3
2017-05-11T04:18:57.492Z,1006.3
2017-05-11T04:20:00.594Z,1006.3
2017-05-11T04:21:02.938Z,1006.3
2017-05-11T04:22:05.283Z,1006.3
2017-05-11T04:23:07.995Z,1006.3
2017-05-11T04:24:10.910Z,1006.3
2017-05-11T04:25:13.506Z,1006.3
2017-05-11T04:26:15.850Z,1006.3
2017-05-11T04:27:18.701Z,1006.3
2017-05-11T04:28:21.050Z,1006.3
2017-05-11T04:29:23.767Z,1006.3
2017-05-11T04:30:26.421Z,1006.3
2017-05-11T04:31:28.768Z,1006.3
2017-05-11T04:32:31.618Z,1006.3
2017-05-11T04:33:33.964Z,1006.3
2017-05-11T04:34:36.811Z,1006.2
2017-05-11T04:35:39.908Z,1006.2
2017-05-11T04:36:42.255Z,1006.2
2017-05-11T04:38:47.077Z,1006.2
2017-05-11T04:39:49.834Z,1006.2
2017-05-11T04:40:52.804Z,1006.2
2017-05-11T04:41:55.016Z,1006.2
2017-05-11T04:42:57.862Z,1006.2
2017-05-11T04:44:00.619Z,1006.2
2017-05-11T04:45:03.022Z,1006.2
2017-05-11T04:47:08.624Z,1006.2
2017-05-11T04:48:10.963Z,1006.2
2017-05-11T04:49:13.685Z,1006.2
2017-05-11T04:50:15.895Z,1006.2
2017-05-11T04:51:18.976Z,1006.2
2017-05-11T04:52:21.569Z,1006.2
2017-05-11T04:53:23.906Z,1006.2
2017-05-11T04:54:26.750Z,1006.2
2017-05-11T04:55:29.164Z,1006.2
2017-05-11T04:56:32.010Z,1006.2
2017-05-11T04:57:34.654Z,1006.2
2017-05-11T04:58:36.994Z,1006.2
2017-05-11T04:59:39.842Z,1006.2
2017-05-11T05:00:42.184Z,1006.2
2017-05-11T05:01:44.901Z,1006.2
2017-05-11T05:02:48.004Z,1006.1
2017-05-11T05:03:50.347Z,1006.2
2017-05-11T05:04:52.688Z,1006.1
2017-05-11T05:05:55.591Z,1006.2
2017-05-11T05:06:58.009Z,1006.2
2017-05-11T05:08:01.107Z,1006.1
2017-05-11T05:09:03.687Z,1006.1
2017-05-11T05:10:05.899Z,1006.1
2017-05-11T05:11:08.744Z,1006.2
2017-05-11T05:12:11.101Z,1006.1
2017-05-11T05:13:14.113Z,1006.2
2017-05-11T05:14:16.824Z,1006.1
2017-05-11T05:15:19.031Z,1006.2
2017-05-11T05:16:21.876Z,1006.1
2017-05-11T05:17:24.720Z,1006.2
2017-05-11T05:18:27.320Z,1006.2
2017-05-11T05:19:29.661Z,1006.2
2017-05-11T05:20:32.510Z,1006.2
2017-05-11T05:21:34.919Z,1006.2
2017-05-11T05:22:37.769Z,1006.2
2017-05-11T05:23:40.794Z,1006.2
2017-05-11T05:24:43.135Z,1006.2
2017-05-11T05:25:45.848Z,1006.2
2017-05-11T05:26:48.199Z,1006.1
2017-05-11T05:27:50.913Z,1006.2
2017-05-11T05:28:54.063Z,1006.2
2017-05-11T05:29:56.411Z,1006.2
2017-05-11T05:30:58.758Z,1006.1
2017-05-11T05:32:01.603Z,1006.1
2017-05-11T05:33:03.940Z,1006.2
2017-05-11T05:34:06.954Z,1006.2
2017-05-11T05:35:09.326Z,1006.2
2017-05-11T05:36:12.175Z,1006.2
2017-05-11T05:37:14.523Z,1006.2
2017-05-11T05:38:17.367Z,1006.2
2017-05-11T05:39:20.519Z,1006.2
2017-05-11T05:40:22.871Z,1006.2
2017-05-11T05:41:25.268Z,1006.2
2017-05-11T05:42:28.112Z,1006.1
2017-05-11T05:43:30.819Z,1006.1
2017-05-11T05:44:33.463Z,1006.2
2017-05-11T05:45:35.809Z,1006.2
2017-05-11T05:46:38.653Z,1006.2
2017-05-11T05:47:40.998Z,1006.2
2017-05-11T05:48:43.840Z,1006.2
2017-05-11T05:49:46.855Z,1006.2
2017-05-11T05:50:49.197Z,1006.2
2017-05-11T05:51:51.598Z,1006.2
2017-05-11T05:52:54.441Z,1006.2
2017-05-11T05:53:57.193Z,1006.2
2017-05-11T05:54:59.914Z,1006.2
2017-05-11T05:56:02.258Z,1006.2
2017-05-11T05:57:04.971Z,1006.2
2017-05-11T05:58:07.684Z,1006.2
2017-05-11T05:59:10.398Z,1006.2
2017-05-11T06:00:13.406Z,1006.2
2017-05-11T06:01:15.618Z,1006.2
2017-05-11T06:02:18.329Z,1006.2
2017-05-11T06:03:20.909Z,1006.2
2017-05-11T06:05:26.420Z,1006.2
2017-05-11T06:06:28.766Z,1006.2
2017-05-11T06:07:31.609Z,1006.2
2017-05-11T06:08:34.455Z,1006.2
2017-05-11T06:09:37.169Z,1006.3
2017-05-11T06:10:39.690Z,1006.3
2017-05-11T06:11:42.029Z,1006.3
2017-05-11T06:12:44.874Z,1006.2
2017-05-11T06:13:47.586Z,1006.3
2017-05-11T06:14:50.435Z,1006.3
2017-05-11T06:15:53.077Z,1006.2
2017-05-11T06:16:55.418Z,1006.2
2017-05-11T06:17:58.269Z,1006.2
2017-05-11T06:19:01.111Z,1006.2
2017-05-11T06:20:03.455Z,1006.2
2017-05-11T06:21:06.556Z,1006.2
2017-05-11T06:22:08.916Z,1006.1
2017-05-11T06:23:11.765Z,1006.1
2017-05-11T06:24:14.117Z,1006.1
2017-05-11T06:25:16.968Z,1006.1
2017-05-11T06:26:19.860Z,1006.1
2017-05-11T06:27:22.206Z,1006.1
2017-05-11T06:28:25.057Z,1006.1
2017-05-11T06:29:27.397Z,1006.1
2017-05-11T06:30:30.253Z,1006.1
2017-05-11T06:31:32.849Z,1006
2017-05-11T06:32:35.700Z,1006
2017-05-11T06:33:38.044Z,1006
2017-05-11T06:34:40.752Z,1006
2017-05-11T06:35:43.474Z,1006
2017-05-11T06:36:46.436Z,1006
2017-05-11T06:38:51.693Z,1006
2017-05-11T06:39:54.041Z,1006
2017-05-11T06:40:56.889Z,1006
2017-05-11T06:41:59.486Z,1006
2017-05-11T06:43:02.392Z,1006
2017-05-11T06:44:04.738Z,1006
2017-05-11T06:45:07.582Z,1006
2017-05-11T06:46:10.156Z,1006
2017-05-11T06:47:13.257Z,1006
2017-05-11T06:48:15.600Z,1006
2017-05-11T06:49:17.950Z,1006
2017-05-11T06:50:20.802Z,1006.1
2017-05-11T06:51:23.643Z,1006.1
2017-05-11T06:52:26.240Z,1006.1
2017-05-11T06:53:29.094Z,1006.1
2017-05-11T06:54:31.447Z,1006.1
2017-05-11T06:55:34.294Z,1006.1
2017-05-11T06:56:37.139Z,1006.1
2017-05-11T06:57:39.733Z,1006.2
2017-05-11T06:58:42.131Z,1006.2
2017-05-11T06:59:44.983Z,1006.1
2017-05-11T07:00:47.836Z,1006.2
2017-05-11T07:01:50.415Z,1006.2
2017-05-11T07:02:53.013Z,1006.1
2017-05-11T07:03:55.863Z,1006.1
2017-05-11T07:04:58.211Z,1006.1
2017-05-11T07:06:01.061Z,1006.2
2017-05-11T07:07:03.909Z,1006.1
2017-05-11T07:08:06.931Z,1006.2
2017-05-11T07:09:09.284Z,1006.2
2017-05-11T07:10:11.632Z,1006.1
2017-05-11T07:11:14.477Z,1006.1
2017-05-11T07:12:17.053Z,1006.1
2017-05-11T07:13:20.065Z,1006.1
2017-05-11T07:14:22.419Z,1006.1
2017-05-11T07:15:25.339Z,1006.1
2017-05-11T07:16:27.685Z,1006.1
2017-05-11T07:17:30.536Z,1006.1
2017-05-11T07:18:33.679Z,1006
2017-05-11T07:19:36.021Z,1006.1
2017-05-11T07:20:38.868Z,1006.1
2017-05-11T07:21:41.214Z,1006.1
2017-05-11T07:22:44.067Z,1006.1
2017-05-11T07:23:46.850Z,1006.1
2017-05-11T07:24:49.203Z,1006.1
2017-05-11T07:25:52.201Z,1006.1
2017-05-11T07:26:54.921Z,1006.1
2017-05-11T07:27:57.266Z,1006.1
2017-05-11T07:29:00.288Z,1006.1
2017-05-11T07:30:02.639Z,1006.1
2017-05-11T07:31:05.347Z,1006.1
2017-05-11T07:32:08.191Z,1006.1
2017-05-11T07:33:10.913Z,1006.1
2017-05-11T07:35:16.329Z,1006
2017-05-11T07:36:19.236Z,1006
2017-05-11T07:37:21.591Z,1006
2017-05-11T07:38:24.442Z,1006
2017-05-11T07:39:27.153Z,1006
2017-05-11T07:40:30.293Z,1006
2017-05-11T07:41:32.696Z,1006
2017-05-11T07:42:35.035Z,1005.9
2017-05-11T07:43:37.883Z,1005.9
2017-05-11T07:44:40.732Z,1005.9
2017-05-11T07:45:43.382Z,1006
2017-05-11T07:46:46.103Z,1006
2017-05-11T07:47:48.824Z,1005.9
2017-05-11T07:48:51.170Z,1006
2017-05-11T07:49:54.076Z,1005.9
2017-05-11T07:50:57.177Z,1006
2017-05-11T07:51:59.522Z,1005.9
2017-05-11T07:53:02.363Z,1006
2017-05-11T07:54:04.709Z,1006
2017-05-11T07:55:07.569Z,1005.9
2017-05-11T07:56:10.532Z,1005.9
2017-05-11T07:57:13.253Z,1005.9
2017-05-11T07:58:15.599Z,1005.9
2017-05-11T07:59:18.444Z,1005.9
2017-05-11T08:00:21.158Z,1005.9
2017-05-11T08:01:24.306Z,1005.9
2017-05-11T08:02:26.647Z,1005.8
2017-05-11T08:03:29.502Z,1005.9
2017-05-11T08:04:31.848Z,1005.9
2017-05-11T08:05:34.753Z,1005.9
2017-05-11T08:06:37.856Z,1005.9
2017-05-11T08:07:40.204Z,1005.8
2017-05-11T08:08:43.053Z,1005.8
2017-05-11T08:09:45.401Z,1005.8
2017-05-11T08:10:48.114Z,1005.8
2017-05-11T08:11:51.213Z,1005.8
2017-05-11T08:12:53.556Z,1005.8
2017-05-11T08:14:59.315Z,1005.7
2017-05-11T08:16:01.668Z,1005.7
2017-05-11T08:17:04.820Z,1005.7
2017-05-11T08:18:07.183Z,1005.7
2017-05-11T08:19:09.761Z,1005.7
2017-05-11T08:20:12.609Z,1005.7
2017-05-11T08:21:15.322Z,1005.7
2017-05-11T08:23:20.827Z,1005.6
2017-05-11T08:24:23.756Z,1005.6
2017-05-11T08:25:26.099Z,1005.6
2017-05-11T08:26:28.947Z,1005.6
2017-05-11T08:27:31.795Z,1005.6
2017-05-11T08:28:34.899Z,1005.6
2017-05-11T08:29:37.246Z,1005.5
2017-05-11T08:30:40.101Z,1005.6
2017-05-11T08:31:42.448Z,1005.6
2017-05-11T08:32:45.301Z,1005.5
2017-05-11T08:33:48.400Z,1005.6
2017-05-11T08:34:50.801Z,1005.6
2017-05-11T08:35:53.649Z,1005.5
2017-05-11T08:36:56.000Z,1005.5
2017-05-11T08:37:58.902Z,1005.5
2017-05-11T08:39:02.007Z,1005.5
2017-05-11T08:41:07.269Z,1005.5
2017-05-11T08:42:09.612Z,1005.5
2017-05-11T08:43:12.469Z,1005.5
2017-05-11T08:44:15.440Z,1005.5
2017-05-11T08:45:18.158Z,1005.6
2017-05-11T08:46:20.871Z,1005.5
2017-05-11T08:47:23.316Z,1005.5
2017-05-11T08:48:26.163Z,1005.5
2017-05-11T08:49:29.181Z,1005.5
2017-05-11T08:50:31.533Z,1005.5
2017-05-11T08:51:34.389Z,1005.5
2017-05-11T08:52:37.098Z,1005.5
2017-05-11T08:53:39.942Z,1005.5
2017-05-11T08:54:43.040Z,1005.4
2017-05-11T08:55:45.391Z,1005.5
2017-05-11T08:56:48.295Z,1005.5
2017-05-11T08:57:50.642Z,1005.4
2017-05-11T08:58:53.488Z,1005.4
2017-05-11T08:59:56.495Z,1005.4
2017-05-11T09:00:58.840Z,1005.4
2017-05-11T09:02:01.694Z,1005.4
2017-05-11T09:03:04.551Z,1005.4
2017-05-11T09:04:07.403Z,1005.3
2017-05-11T09:05:10.367Z,1005.4
2017-05-11T09:06:12.711Z,1005.4
2017-05-11T09:07:15.562Z,1005.4
2017-05-11T09:08:18.137Z,1005.4
2017-05-11T09:09:20.981Z,1005.4
2017-05-11T09:10:24.085Z,1005.4
2017-05-11T09:11:26.438Z,1005.4
2017-05-11T09:12:29.289Z,1005.4
2017-05-11T09:13:31.636Z,1005.4
2017-05-11T09:14:34.542Z,1005.4
2017-05-11T09:15:37.507Z,1005.4
2017-05-11T09:16:39.853Z,1005.3
2017-05-11T09:17:43.068Z,1005.3
2017-05-11T09:18:45.328Z,1005.3
2017-05-11T09:19:48.172Z,1005.3
2017-05-11T09:20:51.273Z,1005.4
2017-05-11T09:21:53.612Z,1005.3
2017-05-11T09:22:56.456Z,1005.3
2017-05-11T09:23:59.304Z,1005.3
2017-05-11T09:25:02.155Z,1005.4
2017-05-11T09:26:04.793Z,1005.3
2017-05-11T09:27:07.380Z,1005.3
2017-05-11T09:28:10.236Z,1005.3
2017-05-11T09:29:12.951Z,1005.3
2017-05-11T09:30:15.832Z,1005.3
2017-05-11T09:31:18.933Z,1005.3
2017-05-11T09:32:21.279Z,1005.3
2017-05-11T09:33:24.124Z,1005.3
2017-05-11T09:34:27.028Z,1005.3
2017-05-11T09:35:29.606Z,1005.3
2017-05-11T09:37:35.120Z,1005.2
2017-05-11T09:38:37.975Z,1005.2
2017-05-11T09:39:40.326Z,1005.2
2017-05-11T09:40:43.174Z,1005.2
2017-05-11T09:41:46.025Z,1005.2
2017-05-11T09:42:49.232Z,1005.1
2017-05-11T09:43:51.581Z,1005.3
2017-05-11T09:44:54.431Z,1005.2
2017-05-11T09:45:57.282Z,1005.2
2017-05-11T09:46:59.627Z,1005.2
2017-05-11T09:48:02.731Z,1005.1
2017-05-11T09:49:05.078Z,1005.1
2017-05-11T09:50:07.926Z,1005.1
2017-05-11T09:51:10.646Z,1005.1
2017-05-11T09:52:13.564Z,1005.1
2017-05-11T09:53:16.667Z,1005.1
2017-05-11T09:54:18.880Z,1005.1
2017-05-11T09:55:21.730Z,1005.1
2017-05-11T09:56:24.443Z,1005.2
2017-05-11T09:57:27.153Z,1005.1
2017-05-11T09:58:30.259Z,1005.1
2017-05-11T10:00:35.513Z,1005.1
2017-05-11T10:01:38.402Z,1005.1
2017-05-11T10:02:41.255Z,1005.1
2017-05-11T10:03:43.962Z,1005
2017-05-11T10:04:46.810Z,1005
2017-05-11T10:05:49.152Z,1005
2017-05-11T10:06:52.004Z,1005
2017-05-11T10:07:54.856Z,1005
2017-05-11T10:08:57.871Z,1005
2017-05-11T10:10:00.219Z,1005
2017-05-11T10:11:02.991Z,1004.9
2017-05-11T10:12:05.841Z,1004.9
